Station Historical Data
Daily Summary for February 1, 2017 Units:  English    Metric   Both
« Previous Day
Next Day »
Daily Weekly Monthly Yearly Custom
  High: Low: Average:
Temperature: 35.0 °F 29.1 °F 31.6 °F
Dew Point: 28.6 °F 22.9 °F 25.6 °F
Humidity: 91% 68% 78%
Wind Speed: 21.0mph 2.0mph 7.2mph
Wind Gust: 24.0mph - -
Wind- - WSW
Pressure: 30.04 in 29.74 in -
Precipitation: 0.00 in    
Historical Graphs
 
 
Tabular Data for February 1, 2017
Time Temperature Dew Point Pressure Wind Wind Speed Wind Gust Humidity Rainfall Rate (Hourly)
00:04 30.9 °F 28.6 °F 29.74 in WSW 7.0 mph 17.0 mph 91% 0.00 in
00:09 30.7 °F 28.1 °F 29.74 in West 8.0 mph 17.0 mph 90% 0.00 in
00:14 30.4 °F 27.8 °F 29.75 in West 7.0 mph 16.0 mph 90% 0.00 in
00:19 30.3 °F 27.7 °F 29.74 in West 6.0 mph 12.0 mph 90% 0.00 in
00:24 30.3 °F 27.7 °F 29.75 in West 5.0 mph 12.0 mph 90% 0.00 in
00:29 30.3 °F 27.7 °F 29.75 in NW 5.0 mph 12.0 mph 90% 0.00 in
00:34 30.2 °F 27.6 °F 29.75 in West 8.0 mph 15.0 mph 90% 0.00 in
00:39 30.1 °F 27.5 °F 29.76 in West 6.0 mph 12.0 mph 90% 0.00 in
00:44 30.0 °F 27.4 °F 29.76 in SW 6.0 mph 14.0 mph 90% 0.00 in
00:49 29.8 °F 27.2 °F 29.76 in West 6.0 mph 17.0 mph 90% 0.00 in
00:54 29.8 °F 27.2 °F 29.77 in WNW 7.0 mph 16.0 mph 90% 0.00 in
00:59 29.7 °F 27.1 °F 29.77 in West 8.0 mph 16.0 mph 90% 0.00 in
01:04 29.7 °F 27.1 °F 29.77 in West 8.0 mph 15.0 mph 90% 0.00 in
01:09 29.7 °F 27.1 °F 29.77 in West 7.0 mph 15.0 mph 90% 0.00 in
01:14 29.7 °F 27.1 °F 29.77 in WSW 7.0 mph 16.0 mph 90% 0.00 in
01:19 29.8 °F 27.2 °F 29.78 in West 7.0 mph 16.0 mph 90% 0.00 in
01:24 29.7 °F 27.1 °F 29.78 in SW 5.0 mph 17.0 mph 90% 0.00 in
01:29 29.7 °F 27.1 °F 29.78 in WSW 13.0 mph 17.0 mph 90% 0.00 in
01:34 29.8 °F 27.5 °F 29.78 in WSW 9.0 mph 17.0 mph 91% 0.00 in
01:39 29.7 °F 27.1 °F 29.78 in West 5.0 mph 20.0 mph 90% 0.00 in
01:44 29.8 °F 27.0 °F 29.79 in WNW 6.0 mph 16.0 mph 89% 0.00 in
01:49 29.8 °F 26.7 °F 29.79 in SW 9.0 mph 16.0 mph 88% 0.00 in
01:54 29.8 °F 26.4 °F 29.79 in West 10.0 mph 17.0 mph 87% 0.00 in
01:59 29.7 °F 25.7 °F 29.80 in SW 7.0 mph 21.0 mph 85% 0.00 in
02:04 29.6 °F 25.1 °F 29.80 in WSW 10.0 mph 21.0 mph 83% 0.00 in
02:09 29.5 °F 24.7 °F 29.80 in West 9.0 mph 19.0 mph 82% 0.00 in
02:14 29.4 °F 24.6 °F 29.80 in West 9.0 mph 18.0 mph 82% 0.00 in
02:19 29.2 °F 24.4 °F 29.81 in West 10.0 mph 18.0 mph 82% 0.00 in
02:24 29.2 °F 24.1 °F 29.81 in West 8.0 mph 17.0 mph 81% 0.00 in
02:29 29.2 °F 24.1 °F 29.81 in West 9.0 mph 15.0 mph 81% 0.00 in
02:34 29.3 °F 24.2 °F 29.81 in West 8.0 mph 15.0 mph 81% 0.00 in
02:39 29.3 °F 24.2 °F 29.81 in West 7.0 mph 13.0 mph 81% 0.00 in
02:44 29.3 °F 24.2 °F 29.81 in West 6.0 mph 13.0 mph 81% 0.00 in
02:49 29.3 °F 24.2 °F 29.82 in West 9.0 mph 12.0 mph 81% 0.00 in
02:54 29.3 °F 24.5 °F 29.81 in WNW 8.0 mph 9.0 mph 82% 0.00 in
02:59 29.4 °F 24.6 °F 29.82 in WSW 10.0 mph 14.0 mph 82% 0.00 in
03:04 29.5 °F 24.7 °F 29.82 in SW 4.0 mph 12.0 mph 82% 0.00 in
03:09 29.6 °F 24.8 °F 29.82 in West 6.0 mph 13.0 mph 82% 0.00 in
03:14 29.6 °F 24.5 °F 29.82 in West 7.0 mph 15.0 mph 81% 0.00 in
03:19 29.6 °F 24.5 °F 29.82 in West 6.0 mph 15.0 mph 81% 0.00 in
03:24 29.6 °F 24.5 °F 29.82 in NW 8.0 mph 12.0 mph 81% 0.00 in
03:29 29.5 °F 24.4 °F 29.82 in West 7.0 mph 15.0 mph 81% 0.00 in
03:34 29.5 °F 24.4 °F 29.82 in West 8.0 mph 16.0 mph 81% 0.00 in
03:39 29.5 °F 24.4 °F 29.82 in West 7.0 mph 16.0 mph 81% 0.00 in
03:44 29.6 °F 24.5 °F 29.82 in West 7.0 mph 14.0 mph 81% 0.00 in
03:49 29.6 °F 24.5 °F 29.83 in WSW 6.0 mph 12.0 mph 81% 0.00 in
03:54 29.7 °F 24.6 °F 29.83 in West 3.0 mph 9.0 mph 81% 0.00 in
03:59 29.7 °F 24.6 °F 29.83 in West 9.0 mph 13.0 mph 81% 0.00 in
04:04 29.7 °F 24.6 °F 29.83 in SW 8.0 mph 14.0 mph 81% 0.00 in
04:09 29.7 °F 24.6 °F 29.83 in WSW 6.0 mph 14.0 mph 81% 0.00 in
04:14 29.7 °F 24.6 °F 29.83 in West 5.0 mph 14.0 mph 81% 0.00 in
04:19 29.7 °F 24.6 °F 29.83 in WSW 5.0 mph 12.0 mph 81% 0.00 in
04:24 29.7 °F 24.6 °F 29.83 in WNW 8.0 mph 18.0 mph 81% 0.00 in
04:29 29.7 °F 24.6 °F 29.83 in West 4.0 mph 16.0 mph 81% 0.00 in
04:34 29.6 °F 24.5 °F 29.83 in WSW 5.0 mph 11.0 mph 81% 0.00 in
04:39 29.7 °F 24.6 °F 29.84 in West 7.0 mph 14.0 mph 81% 0.00 in
04:44 29.5 °F 24.1 °F 29.84 in West 9.0 mph 18.0 mph 80% 0.00 in
04:49 29.4 °F 24.3 °F 29.84 in West 9.0 mph 19.0 mph 81% 0.00 in
04:54 29.3 °F 23.9 °F 29.83 in West 8.0 mph 19.0 mph 80% 0.00 in
04:59 29.2 °F 23.8 °F 29.84 in West 8.0 mph 16.0 mph 80% 0.00 in
05:04 29.1 °F 23.4 °F 29.84 in West 4.0 mph 15.0 mph 79% 0.00 in
05:09 29.2 °F 23.5 °F 29.84 in WSW 7.0 mph 15.0 mph 79% 0.00 in
05:14 29.3 °F 23.6 °F 29.84 in WSW 9.0 mph 18.0 mph 79% 0.00 in
05:19 29.4 °F 23.4 °F 29.84 in WSW 9.0 mph 18.0 mph 78% 0.00 in
05:24 29.5 °F 23.5 °F 29.84 in West 14.0 mph 17.0 mph 78% 0.00 in
05:29 29.5 °F 23.5 °F 29.84 in West 13.0 mph 15.0 mph 78% 0.00 in
05:34 29.5 °F 23.2 °F 29.84 in WSW 11.0 mph 22.0 mph 77% 0.00 in
05:39 29.5 °F 23.2 °F 29.84 in WSW 9.0 mph 17.0 mph 77% 0.00 in
05:44 29.6 °F 23.3 °F 29.84 in WSW 5.0 mph 14.0 mph 77% 0.00 in
05:49 29.6 °F 23.6 °F 29.84 in West 7.0 mph 14.0 mph 78% 0.00 in
05:54 29.6 °F 23.6 °F 29.84 in West 6.0 mph 13.0 mph 78% 0.00 in
05:59 29.6 °F 23.6 °F 29.84 in West 6.0 mph 13.0 mph 78% 0.00 in
06:04 29.7 °F 23.7 °F 29.84 in West 6.0 mph 12.0 mph 78% 0.00 in
06:09 29.7 °F 23.7 °F 29.84 in West 6.0 mph 12.0 mph 78% 0.00 in
06:14 29.7 °F 23.7 °F 29.84 in WSW 12.0 mph 12.0 mph 78% 0.00 in
06:19 29.8 °F 23.8 °F 29.85 in West 5.0 mph 12.0 mph 78% 0.00 in
06:24 29.9 °F 23.9 °F 29.85 in WNW 6.0 mph 11.0 mph 78% 0.00 in
06:29 29.9 °F 24.2 °F 29.85 in West 10.0 mph 11.0 mph 79% 0.00 in
06:34 30.0 °F 24.0 °F 29.86 in WSW 6.0 mph 14.0 mph 78% 0.00 in
06:39 29.9 °F 23.9 °F 29.85 in West 4.0 mph 8.0 mph 78% 0.00 in
06:44 29.9 °F 23.9 °F 29.86 in West 6.0 mph 12.0 mph 78% 0.00 in
06:49 30.0 °F 23.7 °F 29.86 in WSW 6.0 mph 13.0 mph 77% 0.00 in
06:54 30.1 °F 23.8 °F 29.86 in West 7.0 mph 17.0 mph 77% 0.00 in
06:59 30.1 °F 23.8 °F 29.86 in West 8.0 mph 17.0 mph 77% 0.00 in
07:04 30.1 °F 23.8 °F 29.87 in West 7.0 mph 16.0 mph 77% 0.00 in
07:09 30.2 °F 23.5 °F 29.87 in West 6.0 mph 16.0 mph 76% 0.00 in
07:14 30.2 °F 23.5 °F 29.87 in West 7.0 mph 16.0 mph 76% 0.00 in
07:19 30.1 °F 23.4 °F 29.87 in West 6.0 mph 16.0 mph 76% 0.00 in
07:24 30.1 °F 23.4 °F 29.87 in West 5.0 mph 15.0 mph 76% 0.00 in
07:29 30.1 °F 23.4 °F 29.87 in NW 6.0 mph 13.0 mph 76% 0.00 in
07:34 30.1 °F 23.4 °F 29.87 in West 8.0 mph 18.0 mph 76% 0.00 in
07:39 30.1 °F 23.4 °F 29.87 in West 5.0 mph 13.0 mph 76% 0.00 in
07:44 30.2 °F 23.5 °F 29.88 in West 3.0 mph 12.0 mph 76% 0.00 in
07:49 30.1 °F 23.1 °F 29.88 in WSW 5.0 mph 14.0 mph 75% 0.00 in
07:54 30.2 °F 23.2 °F 29.88 in WSW 6.0 mph 14.0 mph 75% 0.00 in
07:59 30.3 °F 23.3 °F 29.88 in WSW 6.0 mph 13.0 mph 75% 0.00 in
08:04 30.3 °F 23.3 °F 29.88 in West 5.0 mph 12.0 mph 75% 0.00 in
08:09 30.4 °F 23.4 °F 29.89 in West 5.0 mph 9.0 mph 75% 0.00 in
08:14 30.4 °F 23.4 °F 29.89 in WNW 7.0 mph 10.0 mph 75% 0.00 in
08:19 30.4 °F 23.7 °F 29.89 in West 2.0 mph 12.0 mph 76% 0.00 in
08:24 30.5 °F 23.8 °F 29.89 in WSW 4.0 mph 8.0 mph 76% 0.00 in
08:29 30.4 °F 24.1 °F 29.89 in West 4.0 mph 8.0 mph 77% 0.00 in
08:34 30.5 °F 24.1 °F 29.89 in West 3.0 mph 9.0 mph 77% 0.00 in
08:39 30.6 °F 23.9 °F 29.89 in West 4.0 mph 12.0 mph 76% 0.00 in
08:44 30.5 °F 23.5 °F 29.89 in WSW 3.0 mph 8.0 mph 75% 0.00 in
08:49 30.4 °F 23.4 °F 29.89 in WSW 4.0 mph 8.0 mph 75% 0.00 in
08:54 30.3 °F 23.3 °F 29.89 in WSW 6.0 mph 14.0 mph 75% 0.00 in
08:59 30.4 °F 23.1 °F 29.90 in WSW 3.0 mph 9.0 mph 74% 0.00 in
09:04 30.3 °F 23.0 °F 29.90 in West 4.0 mph 10.0 mph 74% 0.00 in
09:09 30.5 °F 22.9 °F 29.90 in West 5.0 mph 11.0 mph 73% 0.00 in
09:14 30.7 °F 23.1 °F 29.90 in West 5.0 mph 13.0 mph 73% 0.00 in
09:19 31.3 °F 23.6 °F 29.90 in SW 4.0 mph 10.0 mph 73% 0.00 in
09:24 31.3 °F 23.3 °F 29.91 in WSW 8.0 mph 12.0 mph 72% 0.00 in
09:29 30.9 °F 22.9 °F 29.91 in West 6.0 mph 13.0 mph 72% 0.00 in
09:34 31.1 °F 23.1 °F 29.91 in WSW 7.0 mph 14.0 mph 72% 0.00 in
09:39 31.6 °F 23.3 °F 29.92 in WSW 6.0 mph 14.0 mph 71% 0.00 in
09:44 31.8 °F 23.5 °F 29.92 in WSW 6.0 mph 12.0 mph 71% 0.00 in
09:49 32.0 °F 23.7 °F 29.92 in WSW 7.0 mph 15.0 mph 71% 0.00 in
09:54 32.3 °F 23.9 °F 29.92 in WSW 6.0 mph 15.0 mph 71% 0.00 in
09:59 32.3 °F 23.9 °F 29.92 in WSW 6.0 mph 14.0 mph 71% 0.00 in
10:04 32.0 °F 24.0 °F 29.92 in West 3.0 mph 15.0 mph 72% 0.00 in
10:09 32.2 °F 24.2 °F 29.92 in WSW 5.0 mph 13.0 mph 72% 0.00 in
10:14 32.4 °F 24.4 °F 29.92 in West 9.0 mph 14.0 mph 72% 0.00 in
10:19 32.0 °F 24.0 °F 29.92 in WSW 8.0 mph 16.0 mph 72% 0.00 in
10:24 32.0 °F 24.3 °F 29.92 in West 8.0 mph 15.0 mph 73% 0.00 in
10:29 32.3 °F 24.3 °F 29.92 in West 4.0 mph 15.0 mph 72% 0.00 in
10:34 32.7 °F 24.7 °F 29.92 in WSW 6.0 mph 12.0 mph 72% 0.00 in
10:39 33.1 °F 24.7 °F 29.92 in WSW 7.0 mph 16.0 mph 71% 0.00 in
10:44 33.1 °F 24.4 °F 29.92 in WSW 7.0 mph 16.0 mph 70% 0.00 in
10:49 33.5 °F 25.1 °F 29.92 in WSW 7.0 mph 13.0 mph 71% 0.00 in
10:54 33.4 °F 25.0 °F 29.92 in WSW 8.0 mph 13.0 mph 71% 0.00 in
10:59 33.5 °F 25.1 °F 29.92 in WSW 9.0 mph 16.0 mph 71% 0.00 in
11:04 33.6 °F 25.2 °F 29.92 in WSW 8.0 mph 16.0 mph 71% 0.00 in
11:09 33.7 °F 25.6 °F 29.92 in SSW 7.0 mph 16.0 mph 72% 0.00 in
11:14 33.8 °F 26.1 °F 29.92 in WSW 9.0 mph 16.0 mph 73% 0.01 in
11:19 33.6 °F 25.9 °F 29.92 in West 12.0 mph 18.0 mph 73% 0.01 in
11:24 33.5 °F 25.8 °F 29.92 in SW 11.0 mph 18.0 mph 73% 0.01 in
11:29 33.5 °F 25.8 °F 29.92 in WSW 9.0 mph 18.0 mph 73% 0.02 in
11:34 33.8 °F 26.4 °F 29.92 in West 5.0 mph 13.0 mph 74% 0.02 in
11:39 33.5 °F 26.1 °F 29.92 in WSW 13.0 mph 19.0 mph 74% 0.03 in
11:44 33.7 °F 26.0 °F 29.92 in SW 13.0 mph 13.0 mph 73% 0.03 in
11:49 33.4 °F 26.0 °F 29.92 in WSW 9.0 mph 17.0 mph 74% 0.04 in
11:54 33.5 °F 26.1 °F 29.92 in WSW 8.0 mph 17.0 mph 74% 0.04 in
11:59 34.1 °F 26.3 °F 29.92 in WSW 7.0 mph 15.0 mph 73% 0.04 in
12:04 34.0 °F 26.3 °F 29.92 in WSW 9.0 mph 17.0 mph 73% 0.05 in
12:09 33.8 °F 26.1 °F 29.93 in WSW 9.0 mph 17.0 mph 73% 0.05 in
12:14 33.3 °F 25.6 °F 29.92 in WSW 9.0 mph 17.0 mph 73% 0.04 in
12:19 33.0 °F 25.9 °F 29.92 in WSW 8.0 mph 17.0 mph 75% 0.04 in
12:24 33.4 °F 26.3 °F 29.93 in WSW 10.0 mph 17.0 mph 75% 0.04 in
12:29 33.0 °F 25.9 °F 29.92 in WSW 21.0 mph 21.0 mph 75% 0.03 in
12:34 33.2 °F 25.8 °F 29.92 in SW 11.0 mph 21.0 mph 74% 0.04 in
12:39 33.5 °F 26.1 °F 29.92 in WNW 12.0 mph 22.0 mph 74% 0.03 in
12:44 33.9 °F 26.5 °F 29.92 in WNW 11.0 mph 17.0 mph 74% 0.03 in
12:49 34.4 °F 26.6 °F 29.92 in SW 6.0 mph 18.0 mph 73% 0.02 in
12:54 34.1 °F 26.3 °F 29.92 in WSW 9.0 mph 19.0 mph 73% 0.02 in
12:59 33.9 °F 26.2 °F 29.92 in WSW 9.0 mph 19.0 mph 73% 0.02 in
13:04 33.6 °F 26.2 °F 29.92 in WSW 9.0 mph 17.0 mph 74% 0.01 in
13:09 33.5 °F 26.1 °F 29.92 in WSW 8.0 mph 17.0 mph 74% 0.01 in
13:14 33.4 °F 26.3 °F 29.93 in WSW 10.0 mph 13.0 mph 75% 0.01 in
13:19 33.2 °F 26.1 °F 29.92 in WSW 8.0 mph 20.0 mph 75% 0.02 in
13:24 33.2 °F 26.1 °F 29.93 in WSW 10.0 mph 20.0 mph 75% 0.02 in
13:29 33.3 °F 26.2 °F 29.93 in WSW 9.0 mph 18.0 mph 75% 0.02 in
13:34 33.6 °F 26.5 °F 29.93 in SW 12.0 mph 18.0 mph 75% 0.01 in
13:39 33.5 °F 26.4 °F 29.93 in WSW 13.0 mph 20.0 mph 75% 0.01 in
13:44 33.2 °F 26.1 °F 29.93 in SW 8.0 mph 17.0 mph 75% 0.01 in
13:49 33.2 °F 26.1 °F 29.93 in WSW 12.0 mph 17.0 mph 75% 0.01 in
13:54 33.1 °F 26.0 °F 29.93 in WSW 8.0 mph 21.0 mph 75% 0.01 in
13:59 33.1 °F 26.0 °F 29.93 in WSW 10.0 mph 21.0 mph 75% 0.01 in
14:04 33.2 °F 26.1 °F 29.93 in WSW 9.0 mph 19.0 mph 75% 0.01 in
14:09 33.4 °F 26.0 °F 29.94 in WSW 9.0 mph 19.0 mph 74% 0.02 in
14:14 33.5 °F 26.1 °F 29.94 in WSW 10.0 mph 19.0 mph 74% 0.02 in
14:19 33.6 °F 26.2 °F 29.94 in WSW 10.0 mph 18.0 mph 74% 0.01 in
14:24 33.7 °F 26.0 °F 29.94 in SW 10.0 mph 24.0 mph 73% 0.01 in
14:29 34.8 °F 26.7 °F 29.94 in WSW 10.0 mph 24.0 mph 72% 0.01 in
14:34 34.3 °F 26.2 °F 29.94 in WSW 9.0 mph 17.0 mph 72% 0.01 in
14:39 34.3 °F 26.2 °F 29.94 in WSW 9.0 mph 19.0 mph 72% 0.01 in
14:44 34.6 °F 26.5 °F 29.94 in WSW 6.0 mph 15.0 mph 72% 0.01 in
14:49 35.0 °F 26.9 °F 29.94 in SSE 12.0 mph 17.0 mph 72% 0.01 in
14:54 34.5 °F 26.4 °F 29.94 in WSW 6.0 mph 17.0 mph 72% 0.02 in
14:59 34.7 °F 26.6 °F 29.94 in West 7.0 mph 18.0 mph 72% 0.02 in
15:04 34.5 °F 25.7 °F 29.95 in WSW 10.0 mph 18.0 mph 70% 0.02 in
15:09 34.8 °F 26.4 °F 29.94 in West 9.0 mph 16.0 mph 71% 0.01 in
15:14 34.5 °F 25.7 °F 29.95 in WSW 13.0 mph 20.0 mph 70% 0.01 in
15:19 33.9 °F 25.5 °F 29.95 in SW 7.0 mph 18.0 mph 71% 0.02 in
15:24 34.1 °F 26.0 °F 29.96 in WSW 16.0 mph 16.0 mph 72% 0.02 in
15:29 34.4 °F 26.0 °F 29.96 in West 11.0 mph 18.0 mph 71% 0.02 in
15:34 34.0 °F 25.6 °F 29.96 in WSW 10.0 mph 22.0 mph 71% 0.02 in
15:39 34.1 °F 26.0 °F 29.96 in WSW 8.0 mph 22.0 mph 72% 0.02 in
15:44 33.8 °F 25.0 °F 29.96 in WSW 7.0 mph 14.0 mph 70% 0.02 in
15:49 34.3 °F 25.2 °F 29.96 in WSW 8.0 mph 16.0 mph 69% 0.02 in
15:54 34.3 °F 24.8 °F 29.96 in SSW 8.0 mph 17.0 mph 68% 0.01 in
15:59 34.4 °F 24.9 °F 29.96 in SW 13.0 mph 16.0 mph 68% 0.01 in
16:04 34.1 °F 25.0 °F 29.97 in WSW 9.0 mph 17.0 mph 69% 0.01 in
16:09 34.0 °F 25.2 °F 29.97 in WSW 9.0 mph 17.0 mph 70% 0.01 in
16:14 33.8 °F 25.0 °F 29.97 in WSW 9.0 mph 17.0 mph 70% 0.01 in
16:19 33.8 °F 25.4 °F 29.98 in SW 8.0 mph 16.0 mph 71% 0.00 in
16:24 33.7 °F 25.0 °F 29.98 in West 4.0 mph 18.0 mph 70% 0.00 in
16:29 33.7 °F 26.3 °F 29.98 in West 6.0 mph 13.0 mph 74% 0.00 in
16:34 33.5 °F 26.7 °F 29.98 in WSW 6.0 mph 15.0 mph 76% 0.00 in
16:39 33.4 °F 27.0 °F 29.98 in WSW 9.0 mph 19.0 mph 77% 0.00 in
16:44 33.3 °F 26.9 °F 29.99 in WSW 9.0 mph 19.0 mph 77% 0.00 in
16:49 33.2 °F 26.8 °F 29.99 in NW 9.0 mph 18.0 mph 77% 0.00 in
16:54 33.0 °F 26.6 °F 29.99 in WNW 8.0 mph 16.0 mph 77% 0.00 in
16:59 32.8 °F 26.4 °F 29.99 in West 9.0 mph 17.0 mph 77% 0.00 in
17:04 32.8 °F 26.4 °F 30.00 in SW 3.0 mph 18.0 mph 77% 0.00 in
17:09 32.8 °F 27.0 °F 30.00 in WSW 9.0 mph 18.0 mph 79% 0.00 in
17:14 32.8 °F 27.3 °F 30.00 in WSW 8.0 mph 17.0 mph 80% 0.00 in
17:19 32.6 °F 27.1 °F 30.01 in WSW 8.0 mph 15.0 mph 80% 0.00 in
17:24 32.4 °F 26.9 °F 30.01 in West 5.0 mph 16.0 mph 80% 0.00 in
17:29 32.3 °F 26.8 °F 30.01 in WSW 6.0 mph 18.0 mph 80% 0.00 in
17:34 32.2 °F 26.7 °F 30.01 in WSW 5.0 mph 14.0 mph 80% 0.00 in
17:39 32.1 °F 26.6 °F 30.02 in West 7.0 mph 12.0 mph 80% 0.00 in
17:44 32.1 °F 26.6 °F 30.02 in WSW 8.0 mph 15.0 mph 80% 0.00 in
17:49 32.1 °F 26.6 °F 30.02 in WSW 9.0 mph 18.0 mph 80% 0.00 in
17:54 32.0 °F 26.5 °F 30.02 in WSW 8.0 mph 18.0 mph 80% 0.00 in
17:59 31.9 °F 26.4 °F 30.02 in WSW 7.0 mph 14.0 mph 80% 0.00 in
18:04 31.9 °F 26.4 °F 30.02 in WSW 7.0 mph 14.0 mph 80% 0.00 in
18:09 31.8 °F 26.3 °F 30.02 in WSW 7.0 mph 14.0 mph 80% 0.00 in
18:14 31.8 °F 26.3 °F 30.03 in SW 11.0 mph 16.0 mph 80% 0.00 in
18:19 31.7 °F 26.5 °F 30.03 in WSW 7.0 mph 16.0 mph 81% 0.00 in
18:24 31.8 °F 26.6 °F 30.03 in West 6.0 mph 12.0 mph 81% 0.00 in
18:29 31.8 °F 26.9 °F 30.03 in West 7.0 mph 11.0 mph 82% 0.00 in
18:34 31.6 °F 26.7 °F 30.03 in SSW 6.0 mph 14.0 mph 82% 0.00 in
18:39 31.6 °F 26.7 °F 30.04 in West 6.0 mph 15.0 mph 82% 0.00 in
18:44 31.7 °F 26.5 °F 30.03 in WSW 8.0 mph 16.0 mph 81% 0.00 in
18:49 31.6 °F 26.4 °F 30.03 in WSW 7.0 mph 16.0 mph 81% 0.00 in
18:54 31.4 °F 26.2 °F 30.03 in WSW 6.0 mph 12.0 mph 81% 0.00 in
18:59 31.5 °F 26.6 °F 30.03 in WSW 7.0 mph 13.0 mph 82% 0.00 in
19:04 31.5 °F 26.6 °F 30.04 in WSW 7.0 mph 13.0 mph 82% 0.00 in
19:09 31.4 °F 26.5 °F 30.04 in West 3.0 mph 13.0 mph 82% 0.00 in
19:14 31.4 °F 26.5 °F 30.04 in West 6.0 mph 12.0 mph 82% 0.00 in
19:19 31.6 °F 26.7 °F 30.03 in West 8.0 mph 15.0 mph 82% 0.00 in
19:24 31.6 °F 26.7 °F 30.03 in WSW 7.0 mph 15.0 mph 82% 0.00 in
19:29 31.8 °F 26.9 °F 30.03 in West 5.0 mph 15.0 mph 82% 0.00 in
19:34 31.9 °F 26.7 °F 30.03 in SW 7.0 mph 16.0 mph 81% 0.00 in
19:39 32.1 °F 26.6 °F 30.03 in WSW 9.0 mph 16.0 mph 80% 0.00 in
19:44 32.2 °F 26.7 °F 30.03 in SW 4.0 mph 13.0 mph 80% 0.00 in
19:49 32.2 °F 26.4 °F 30.03 in West 7.0 mph 13.0 mph 79% 0.00 in
19:54 32.2 °F 26.1 °F 30.03 in SW 4.0 mph 10.0 mph 78% 0.00 in
19:59 31.9 °F 26.1 °F 30.03 in WSW 5.0 mph 11.0 mph 79% 0.00 in
20:04 31.8 °F 26.0 °F 30.03 in WSW 5.0 mph 14.0 mph 79% 0.00 in
20:09 31.7 °F 25.9 °F 30.03 in WSW 6.0 mph 14.0 mph 79% 0.00 in
20:14 31.7 °F 26.2 °F 30.03 in WSW 6.0 mph 14.0 mph 80% 0.00 in
20:19 31.7 °F 26.2 °F 30.03 in West 4.0 mph 12.0 mph 80% 0.00 in
20:24 31.7 °F 26.5 °F 30.03 in SW 8.0 mph 11.0 mph 81% 0.00 in
20:29 31.9 °F 26.7 °F 30.03 in WSW 7.0 mph 16.0 mph 81% 0.00 in
20:34 32.0 °F 26.8 °F 30.03 in WSW 8.0 mph 16.0 mph 81% 0.00 in
20:39 32.1 °F 26.9 °F 30.03 in WSW 11.0 mph 13.0 mph 81% 0.00 in
20:44 32.0 °F 26.8 °F 30.03 in WSW 5.0 mph 12.0 mph 81% 0.00 in
20:49 32.1 °F 26.9 °F 30.02 in West 9.0 mph 12.0 mph 81% 0.00 in
20:54 32.2 °F 27.0 °F 30.02 in WSW 9.0 mph 15.0 mph 81% 0.00 in
20:59 32.2 °F 27.0 °F 30.02 in WSW 6.0 mph 13.0 mph 81% 0.00 in
21:04 32.1 °F 26.9 °F 30.02 in WSW 6.0 mph 13.0 mph 81% 0.00 in
21:09 32.0 °F 27.1 °F 30.02 in WSW 5.0 mph 11.0 mph 82% 0.00 in
21:14 32.1 °F 27.2 °F 30.02 in WSW 6.0 mph 11.0 mph 82% 0.00 in
21:19 32.2 °F 27.0 °F 30.02 in WSW 7.0 mph 12.0 mph 81% 0.00 in
21:24 32.2 °F 26.7 °F 30.02 in SW 3.0 mph 10.0 mph 80% 0.00 in
21:29 32.3 °F 26.8 °F 30.01 in SW 5.0 mph 16.0 mph 80% 0.00 in
21:34 32.4 °F 26.9 °F 30.01 in WSW 7.0 mph 16.0 mph 80% 0.00 in
21:39 32.4 °F 26.9 °F 30.01 in WSW 7.0 mph 15.0 mph 80% 0.00 in
21:44 32.5 °F 27.0 °F 30.01 in WSW 7.0 mph 12.0 mph 80% 0.00 in
21:49 32.5 °F 27.0 °F 30.01 in WSW 4.0 mph 11.0 mph 80% 0.00 in
21:54 32.4 °F 26.9 °F 30.01 in WSW 6.0 mph 12.0 mph 80% 0.00 in
21:59 32.5 °F 27.0 °F 30.01 in WSW 7.0 mph 13.0 mph 80% 0.00 in
22:04 32.5 °F 26.7 °F 30.01 in South 6.0 mph 11.0 mph 79% 0.00 in
22:09 32.3 °F 27.1 °F 30.01 in WSW 6.0 mph 12.0 mph 81% 0.00 in
22:14 32.1 °F 27.2 °F 30.01 in SW 6.0 mph 12.0 mph 82% 0.00 in
22:19 32.0 °F 27.1 °F 30.01 in SW 4.0 mph 12.0 mph 82% 0.00 in
22:24 32.0 °F 27.1 °F 30.02 in SW 5.0 mph 11.0 mph 82% 0.00 in
22:29 32.0 °F 27.4 °F 30.02 in West 6.0 mph 14.0 mph 83% 0.00 in
22:34 32.1 °F 27.5 °F 30.02 in SW 5.0 mph 10.0 mph 83% 0.00 in
22:39 32.0 °F 27.4 °F 30.01 in SW 9.0 mph 10.0 mph 83% 0.00 in
22:44 32.0 °F 27.4 °F 30.02 in SW 6.0 mph 13.0 mph 83% 0.00 in
22:49 32.0 °F 27.7 °F 30.02 in SW 5.0 mph 13.0 mph 84% 0.00 in
22:54 31.9 °F 27.9 °F 30.01 in SW 5.0 mph 17.0 mph 85% 0.00 in
22:59 31.9 °F 28.2 °F 30.01 in WSW 6.0 mph 17.0 mph 86% 0.00 in
23:04 31.9 °F 28.5 °F 30.01 in SW 5.0 mph 13.0 mph 87% 0.00 in
23:09 31.8 °F 28.4 °F 30.01 in WSW 2.0 mph 8.0 mph 87% 0.00 in
23:14 31.8 °F 28.4 °F 30.01 in WSW 5.0 mph 8.0 mph 87% 0.00 in
23:19 31.7 °F 28.6 °F 30.01 in WSW 4.0 mph 8.0 mph 88% 0.00 in
23:24 31.6 °F 28.5 °F 30.01 in WSW 4.0 mph 7.0 mph 88% 0.00 in
23:29 31.7 °F 28.6 °F 30.01 in West 2.0 mph 10.0 mph 88% 0.00 in
23:34 31.7 °F 27.4 °F 30.00 in West 6.0 mph 11.0 mph 84% 0.00 in
23:39 31.7 °F 26.5 °F 30.00 in West 5.0 mph 12.0 mph 81% 0.00 in
23:44 31.4 °F 25.6 °F 30.00 in WNW 5.0 mph 11.0 mph 79% 0.00 in
23:49 31.3 °F 25.5 °F 30.00 in WNW 6.0 mph 12.0 mph 79% 0.00 in
23:54 31.1 °F 25.3 °F 30.00 in West 6.0 mph 12.0 mph 79% 0.00 in
23:59 31.1 °F 25.7 °F 30.00 in WNW 8.0 mph 12.0 mph 80% 0.00 in
Buffalo, New York, USA
Compliments of Weather Underground - 2.5 mb